createdAt,value
2017-07-31T05:31:37.992Z,85
2017-07-31T05:32:03.454Z,90
2017-07-31T05:32:28.930Z,90
2017-07-31T05:32:54.407Z,95
2017-07-31T05:33:19.891Z,95
2017-07-31T05:33:45.355Z,95
2017-07-31T05:34:10.789Z,100
2017-07-31T05:34:36.255Z,105
2017-07-31T05:35:01.694Z,110
2017-07-31T05:35:27.188Z,110
2017-07-31T05:35:52.635Z,110
2017-07-31T05:36:18.095Z,115
2017-07-31T05:36:43.542Z,115
2017-07-31T05:37:08.997Z,115
2017-07-31T05:37:34.482Z,120
2017-07-31T05:37:59.937Z,125
2017-07-31T05:38:25.445Z,130
2017-07-31T05:38:50.879Z,135
2017-07-31T05:39:16.371Z,140
2017-07-31T05:39:41.856Z,140
2017-07-31T05:40:07.355Z,140
2017-07-31T05:40:32.801Z,140
2017-07-31T05:40:58.252Z,135
2017-07-31T05:41:23.701Z,130
2017-07-31T05:41:49.165Z,130
2017-07-31T05:42:14.645Z,130
2017-07-31T05:42:40.092Z,125
2017-07-31T05:43:05.602Z,125
2017-07-31T05:43:31.043Z,120
2017-07-31T05:43:56.503Z,120
2017-07-31T05:44:21.990Z,115
2017-07-31T05:44:47.435Z,115
2017-07-31T05:45:12.919Z,115
2017-07-31T05:45:38.385Z,100
2017-07-31T05:46:03.866Z,95
2017-07-31T05:46:29.342Z,100
2017-07-31T05:46:54.815Z,100
2017-07-31T05:47:20.277Z,105
2017-07-31T05:47:45.842Z,105
2017-07-31T05:48:11.286Z,120
2017-07-31T05:48:36.752Z,130
2017-07-31T05:49:02.225Z,130
2017-07-31T05:49:27.728Z,140
2017-07-31T05:49:53.226Z,135
2017-07-31T05:50:18.683Z,135
2017-07-31T05:50:44.158Z,145
2017-07-31T05:51:09.611Z,145
2017-07-31T05:51:35.113Z,145
2017-07-31T05:52:00.567Z,145
2017-07-31T05:52:26.045Z,140
2017-07-31T05:52:51.513Z,140
2017-07-31T05:53:16.979Z,155
2017-07-31T05:53:42.459Z,180
2017-07-31T05:54:07.931Z,205
2017-07-31T05:54:33.416Z,230
2017-07-31T05:54:58.884Z,210
2017-07-31T05:55:24.363Z,195
2017-07-31T05:55:49.897Z,170
2017-07-31T05:56:15.414Z,150
2017-07-31T05:56:40.911Z,155
2017-07-31T05:57:06.417Z,145
2017-07-31T05:57:31.933Z,150
2017-07-31T05:57:57.410Z,155
2017-07-31T05:58:22.924Z,160
2017-07-31T05:58:48.399Z,165
2017-07-31T05:59:13.853Z,175
2017-07-31T05:59:39.345Z,180
2017-07-31T06:00:04.885Z,185
2017-07-31T06:00:30.354Z,195
2017-07-31T06:00:55.839Z,195
2017-07-31T06:01:21.324Z,200
2017-07-31T06:01:46.779Z,195
2017-07-31T06:02:12.262Z,195
2017-07-31T06:02:37.737Z,190
2017-07-31T06:03:03.200Z,180
2017-07-31T06:03:28.660Z,180
2017-07-31T06:03:54.152Z,180
2017-07-31T06:04:19.641Z,175
2017-07-31T06:04:45.110Z,175
2017-07-31T06:05:10.630Z,175
2017-07-31T06:05:36.144Z,175
2017-07-31T06:06:01.640Z,175
2017-07-31T06:06:27.144Z,170
2017-07-31T06:06:52.595Z,170
2017-07-31T06:07:18.089Z,160
2017-07-31T06:07:43.526Z,155
2017-07-31T06:08:09.070Z,160
2017-07-31T06:08:34.582Z,155
2017-07-31T06:09:00.019Z,150
2017-07-31T06:09:25.525Z,150
2017-07-31T06:09:50.979Z,145
2017-07-31T06:10:16.464Z,150
2017-07-31T06:10:41.923Z,145
2017-07-31T06:11:07.385Z,130
2017-07-31T06:11:32.884Z,120
2017-07-31T06:11:58.376Z,125
2017-07-31T06:12:23.826Z,140
2017-07-31T06:12:49.316Z,145
2017-07-31T06:13:14.783Z,140
2017-07-31T06:13:40.254Z,150
2017-07-31T06:14:05.756Z,150
2017-07-31T06:14:31.255Z,150
2017-07-31T06:14:56.753Z,150
2017-07-31T06:15:22.249Z,150
2017-07-31T06:15:47.718Z,145
2017-07-31T06:16:13.165Z,145
2017-07-31T06:16:38.695Z,140
2017-07-31T06:17:04.147Z,140
2017-07-31T06:17:29.619Z,140
2017-07-31T06:17:55.070Z,140
2017-07-31T06:18:20.539Z,140
2017-07-31T06:18:46.046Z,140
2017-07-31T06:19:11.528Z,140
2017-07-31T06:19:36.986Z,140
2017-07-31T06:20:02.471Z,140
2017-07-31T06:20:27.932Z,140
2017-07-31T06:20:53.414Z,140
2017-07-31T06:21:18.881Z,140
2017-07-31T06:21:44.333Z,140
2017-07-31T06:22:09.820Z,140
2017-07-31T06:22:35.268Z,140
2017-07-31T06:23:00.724Z,140
2017-07-31T06:23:26.206Z,145
2017-07-31T06:23:51.701Z,145
2017-07-31T06:24:17.186Z,140
2017-07-31T06:24:42.665Z,145
2017-07-31T06:25:08.176Z,140
2017-07-31T06:25:33.655Z,140
2017-07-31T06:25:59.133Z,145
2017-07-31T06:26:24.598Z,145
2017-07-31T06:26:50.117Z,145
2017-07-31T06:27:15.584Z,145
2017-07-31T06:27:41.061Z,145
2017-07-31T06:28:06.550Z,145
2017-07-31T06:28:32.005Z,145
2017-07-31T06:28:57.485Z,140
2017-07-31T06:29:22.986Z,145
2017-07-31T06:29:48.448Z,140
2017-07-31T06:30:13.940Z,145
2017-07-31T06:30:39.459Z,145
2017-07-31T06:31:04.936Z,145
2017-07-31T06:31:30.485Z,140
2017-07-31T06:31:55.965Z,140
2017-07-31T06:32:21.451Z,145
2017-07-31T06:32:46.983Z,145
2017-07-31T06:33:12.482Z,140
2017-07-31T06:33:37.990Z,140
2017-07-31T06:34:03.529Z,140
2017-07-31T06:34:29.022Z,145
2017-07-31T06:34:54.468Z,145
2017-07-31T06:35:19.993Z,140
2017-07-31T06:35:45.489Z,145
2017-07-31T06:36:10.975Z,140
2017-07-31T06:36:36.425Z,140
2017-07-31T06:37:01.930Z,145
2017-07-31T06:37:27.453Z,145
2017-07-31T06:37:52.935Z,140
2017-07-31T06:38:18.455Z,145
2017-07-31T06:38:43.937Z,145
2017-07-31T06:39:09.414Z,145
2017-07-31T06:39:34.906Z,145
2017-07-31T06:40:00.368Z,145
2017-07-31T06:40:25.827Z,145
2017-07-31T06:40:51.325Z,145
2017-07-31T06:41:16.835Z,145
2017-07-31T06:41:42.313Z,145
2017-07-31T06:42:07.777Z,145
2017-07-31T06:42:33.255Z,145
2017-07-31T06:42:58.733Z,145
2017-07-31T06:43:24.211Z,145
2017-07-31T06:43:49.698Z,145
2017-07-31T06:44:15.186Z,145
2017-07-31T06:44:40.647Z,145
2017-07-31T06:45:06.151Z,145
2017-07-31T06:45:31.663Z,145
2017-07-31T06:45:57.160Z,145
2017-07-31T06:46:22.674Z,145
2017-07-31T06:46:48.152Z,150
2017-07-31T06:47:13.600Z,155
2017-07-31T06:47:39.056Z,155
2017-07-31T06:48:04.534Z,160
2017-07-31T06:48:29.987Z,155
2017-07-31T06:48:55.489Z,155
2017-07-31T06:49:21.019Z,155
2017-07-31T06:49:46.499Z,150
2017-07-31T06:50:11.979Z,150
2017-07-31T06:50:37.447Z,150
2017-07-31T06:51:02.941Z,150
2017-07-31T06:51:28.401Z,150
2017-07-31T06:51:53.862Z,150
2017-07-31T06:52:19.331Z,150
2017-07-31T06:52:44.839Z,150
2017-07-31T06:53:10.324Z,150
2017-07-31T06:53:35.833Z,150
2017-07-31T06:54:01.299Z,155
2017-07-31T06:54:26.797Z,155
2017-07-31T06:54:52.280Z,155
2017-07-31T06:55:17.790Z,155
2017-07-31T06:55:43.267Z,155
2017-07-31T06:56:08.783Z,155
2017-07-31T06:56:34.344Z,155
2017-07-31T06:56:59.805Z,150
2017-07-31T06:57:25.283Z,150
2017-07-31T06:57:50.757Z,150
2017-07-31T06:58:16.270Z,150
2017-07-31T06:58:41.750Z,150
2017-07-31T06:59:07.192Z,140
2017-07-31T06:59:32.693Z,140
2017-07-31T06:59:58.211Z,145
2017-07-31T07:00:23.665Z,120
2017-07-31T07:00:49.119Z,135
2017-07-31T07:01:14.597Z,145
2017-07-31T07:01:40.112Z,145
2017-07-31T07:02:05.637Z,145
2017-07-31T07:02:31.140Z,145
2017-07-31T07:02:56.602Z,130
2017-07-31T07:03:22.101Z,145
2017-07-31T07:03:47.569Z,145
2017-07-31T07:04:13.019Z,150
2017-07-31T07:04:38.484Z,145
2017-07-31T07:05:04.000Z,145
2017-07-31T07:05:29.458Z,135
2017-07-31T07:05:54.939Z,135
2017-07-31T07:06:20.450Z,145
2017-07-31T07:06:45.928Z,130
2017-07-31T07:07:11.440Z,145
2017-07-31T07:07:36.956Z,145
2017-07-31T07:08:02.422Z,140
2017-07-31T07:08:27.914Z,135
2017-07-31T07:08:53.415Z,145
2017-07-31T07:09:18.910Z,150
2017-07-31T07:09:44.412Z,150
2017-07-31T07:10:09.907Z,150
2017-07-31T07:10:35.371Z,150
2017-07-31T07:11:00.840Z,150
2017-07-31T07:11:26.371Z,150
2017-07-31T07:11:51.840Z,150
2017-07-31T07:12:17.333Z,150
2017-07-31T07:12:42.805Z,150
2017-07-31T07:13:08.316Z,155
2017-07-31T07:13:33.789Z,145
2017-07-31T07:13:59.235Z,150
2017-07-31T07:14:24.714Z,150
2017-07-31T07:14:50.208Z,145
2017-07-31T07:15:15.689Z,145
2017-07-31T07:15:41.176Z,140
2017-07-31T07:16:06.635Z,135
2017-07-31T07:16:32.102Z,145
2017-07-31T07:16:57.578Z,140
2017-07-31T07:17:23.026Z,130
2017-07-31T07:17:48.505Z,120
2017-07-31T07:18:13.953Z,130
2017-07-31T07:18:39.449Z,125
2017-07-31T07:19:04.927Z,125
2017-07-31T07:19:30.394Z,135
2017-07-31T07:19:55.868Z,135
2017-07-31T07:20:21.357Z,135
2017-07-31T07:20:46.806Z,140
2017-07-31T07:21:12.266Z,145
2017-07-31T07:21:37.746Z,145
2017-07-31T07:22:03.232Z,145
2017-07-31T07:22:28.769Z,145
2017-07-31T07:22:54.261Z,145
2017-07-31T07:23:19.731Z,150
2017-07-31T07:23:45.260Z,150
2017-07-31T07:24:10.735Z,145
2017-07-31T07:24:36.221Z,150
2017-07-31T07:25:01.715Z,150
2017-07-31T07:25:27.184Z,150
2017-07-31T07:25:52.748Z,150
2017-07-31T07:26:18.222Z,150
2017-07-31T07:26:43.700Z,150
2017-07-31T07:27:09.177Z,140
2017-07-31T07:27:34.645Z,145
2017-07-31T07:28:00.135Z,145
2017-07-31T07:28:25.615Z,150
2017-07-31T07:28:51.116Z,150
2017-07-31T07:29:16.599Z,150
2017-07-31T07:29:42.038Z,150
2017-07-31T07:30:07.525Z,150
2017-07-31T07:30:33.018Z,150
2017-07-31T07:30:58.510Z,150
2017-07-31T07:31:23.983Z,155
2017-07-31T07:31:49.475Z,155
2017-07-31T07:32:14.971Z,155
2017-07-31T07:32:40.453Z,155
2017-07-31T07:33:05.987Z,160
2017-07-31T07:33:31.438Z,160
2017-07-31T07:33:56.922Z,155
2017-07-31T07:34:22.394Z,160
2017-07-31T07:34:47.853Z,150
2017-07-31T07:35:13.344Z,155
2017-07-31T07:35:38.851Z,145
2017-07-31T07:36:04.279Z,145
2017-07-31T07:36:29.767Z,135
2017-07-31T07:36:55.245Z,130
2017-07-31T07:37:20.736Z,135
2017-07-31T07:37:46.206Z,140
2017-07-31T07:38:11.675Z,170
2017-07-31T07:38:37.136Z,140
2017-07-31T07:39:02.607Z,150
2017-07-31T07:40:11.326Z,175
2017-07-31T07:40:36.793Z,185
2017-07-31T07:41:02.270Z,150
2017-07-31T07:41:27.747Z,165
2017-07-31T07:41:53.260Z,165
2017-07-31T07:42:18.732Z,185
2017-07-31T07:42:44.233Z,190
2017-07-31T07:43:09.815Z,185
2017-07-31T07:43:35.252Z,165
2017-07-31T07:44:00.744Z,185
2017-07-31T07:44:26.190Z,180
2017-07-31T07:44:51.685Z,175
2017-07-31T07:45:17.176Z,170
2017-07-31T07:45:42.682Z,170
2017-07-31T07:46:08.174Z,170
2017-07-31T07:46:33.651Z,165
2017-07-31T07:46:59.139Z,170
2017-07-31T07:47:24.604Z,150
2017-07-31T07:47:50.120Z,170
2017-07-31T07:48:15.591Z,165
2017-07-31T07:48:41.080Z,175
2017-07-31T07:49:06.576Z,170
2017-07-31T07:49:32.101Z,160
2017-07-31T07:49:57.589Z,165
2017-07-31T07:50:23.104Z,165
2017-07-31T07:50:48.608Z,165
2017-07-31T07:51:14.103Z,170
2017-07-31T07:51:39.599Z,170
2017-07-31T07:52:05.089Z,170
2017-07-31T07:52:30.539Z,160
2017-07-31T07:52:56.004Z,155
2017-07-31T07:53:21.500Z,155
2017-07-31T07:53:46.987Z,155
2017-07-31T07:54:12.435Z,155
2017-07-31T07:54:37.900Z,150
2017-07-31T07:55:03.384Z,150
2017-07-31T07:55:28.857Z,150
2017-07-31T07:55:54.326Z,150
2017-07-31T07:56:19.833Z,145
2017-07-31T07:56:45.325Z,160
2017-07-31T07:57:10.870Z,170
2017-07-31T07:57:36.342Z,175
2017-07-31T07:58:01.796Z,190
2017-07-31T07:58:27.260Z,180
2017-07-31T07:58:52.723Z,205
2017-07-31T07:59:18.227Z,225
2017-07-31T07:59:43.719Z,225
2017-07-31T08:00:09.170Z,230
2017-07-31T08:00:34.688Z,225
2017-07-31T08:01:00.118Z,205
2017-07-31T08:01:25.597Z,180
2017-07-31T08:01:51.118Z,170
2017-07-31T08:02:16.604Z,160
2017-07-31T08:02:42.094Z,155
2017-07-31T08:03:07.601Z,155
2017-07-31T08:03:33.067Z,150
2017-07-31T08:03:58.509Z,150
2017-07-31T08:04:24.005Z,150
2017-07-31T08:04:49.505Z,150
2017-07-31T08:05:15.012Z,120
2017-07-31T08:05:40.458Z,140
2017-07-31T08:06:05.926Z,160
2017-07-31T08:06:31.391Z,165
2017-07-31T08:06:56.856Z,195
2017-07-31T08:07:22.331Z,210
2017-07-31T08:07:47.821Z,210
2017-07-31T08:08:13.301Z,225
2017-07-31T08:08:38.796Z,250
2017-07-31T08:09:04.271Z,290
2017-07-31T08:09:29.769Z,305
2017-07-31T08:09:55.264Z,305
2017-07-31T08:10:20.730Z,295
2017-07-31T08:10:46.167Z,245
2017-07-31T08:11:11.657Z,265
2017-07-31T08:11:37.172Z,245
2017-07-31T08:12:02.652Z,260
2017-07-31T08:12:28.121Z,275
2017-07-31T08:12:53.644Z,210
2017-07-31T08:13:19.164Z,235
2017-07-31T08:13:44.601Z,235
2017-07-31T08:14:10.090Z,210
2017-07-31T08:14:35.576Z,225
2017-07-31T08:15:01.072Z,230
2017-07-31T08:15:26.545Z,225
2017-07-31T08:15:52.120Z,210
2017-07-31T08:16:17.659Z,200
2017-07-31T08:16:43.153Z,195
2017-07-31T08:17:08.669Z,215
2017-07-31T08:17:34.192Z,220
2017-07-31T08:17:59.667Z,220
2017-07-31T08:18:25.147Z,225
2017-07-31T08:19:44.171Z,160
2017-07-31T08:20:09.655Z,195
2017-07-31T08:20:35.173Z,210
2017-07-31T08:21:00.670Z,230
2017-07-31T08:21:26.227Z,200
2017-07-31T08:21:51.721Z,200
2017-07-31T08:22:17.230Z,195
2017-07-31T08:22:42.699Z,165
2017-07-31T08:23:08.160Z,190
2017-07-31T08:23:33.674Z,200
2017-07-31T08:23:59.151Z,210
2017-07-31T08:24:24.613Z,265
2017-07-31T08:24:50.086Z,255
2017-07-31T08:25:15.607Z,220
2017-07-31T08:25:41.118Z,225
2017-07-31T08:26:06.610Z,225
2017-07-31T08:26:32.111Z,230
2017-07-31T08:26:57.602Z,220
2017-07-31T08:27:23.174Z,250
2017-07-31T08:27:48.673Z,260
2017-07-31T08:28:14.163Z,225
2017-07-31T08:28:39.630Z,235
2017-07-31T08:29:05.142Z,250
2017-07-31T08:29:30.628Z,275
2017-07-31T08:29:56.089Z,225
2017-07-31T08:30:21.591Z,230
2017-07-31T08:30:47.068Z,265
2017-07-31T08:31:12.627Z,250
2017-07-31T08:31:38.152Z,195
2017-07-31T08:32:03.612Z,225
2017-07-31T08:32:29.144Z,210
2017-07-31T08:32:54.607Z,165
2017-07-31T08:33:20.115Z,165
2017-07-31T08:33:45.653Z,150
2017-07-31T08:34:11.120Z,170
2017-07-31T08:34:36.611Z,165
2017-07-31T08:35:02.100Z,165
2017-07-31T08:35:27.604Z,165
2017-07-31T08:35:53.065Z,160
2017-07-31T08:36:18.506Z,185
2017-07-31T08:36:43.968Z,195
2017-07-31T08:37:09.457Z,190
2017-07-31T08:37:34.954Z,170
2017-07-31T08:38:00.433Z,165
2017-07-31T08:38:25.938Z,150
2017-07-31T08:38:51.471Z,150
2017-07-31T08:39:16.989Z,165
2017-07-31T08:39:42.483Z,185
2017-07-31T08:40:07.992Z,200
2017-07-31T08:40:33.529Z,190
2017-07-31T08:40:58.980Z,200
2017-07-31T08:41:24.555Z,170
2017-07-31T08:41:50.029Z,215
2017-07-31T08:42:15.510Z,200
2017-07-31T08:42:40.991Z,230
2017-07-31T08:43:06.548Z,215
2017-07-31T08:43:32.043Z,210
2017-07-31T08:43:57.555Z,170
2017-07-31T08:44:23.071Z,195
2017-07-31T08:44:48.551Z,180
2017-07-31T08:45:14.044Z,180
2017-07-31T08:45:39.490Z,215
2017-07-31T08:46:05.029Z,220
2017-07-31T08:46:30.536Z,270
2017-07-31T08:46:56.066Z,240
2017-07-31T08:47:21.587Z,255
2017-07-31T08:47:47.100Z,215
2017-07-31T08:48:12.647Z,205
2017-07-31T08:48:38.141Z,200
2017-07-31T08:49:03.582Z,195
2017-07-31T08:49:29.057Z,180
2017-07-31T08:49:54.540Z,200
2017-07-31T08:50:19.997Z,165
2017-07-31T08:50:45.468Z,195
2017-07-31T08:51:10.986Z,155
2017-07-31T08:51:36.492Z,155
2017-07-31T08:52:01.973Z,150
2017-07-31T08:53:25.945Z,165
2017-07-31T08:53:51.410Z,180
2017-07-31T08:54:16.902Z,170
2017-07-31T08:54:42.366Z,165
2017-07-31T08:55:07.841Z,175
2017-07-31T08:55:33.293Z,200
2017-07-31T08:55:58.813Z,170
2017-07-31T08:56:24.296Z,160
2017-07-31T08:56:49.795Z,175
2017-07-31T08:57:15.279Z,160
2017-07-31T08:57:40.765Z,200
2017-07-31T08:58:06.243Z,160
2017-07-31T08:58:31.674Z,210
2017-07-31T08:58:57.148Z,180
2017-07-31T08:59:22.617Z,160
2017-07-31T08:59:48.112Z,170
2017-07-31T09:00:13.588Z,180
2017-07-31T09:00:39.061Z,175
2017-07-31T09:01:04.541Z,170
2017-07-31T09:01:30.015Z,165
2017-07-31T09:01:55.475Z,155
2017-07-31T09:02:21.002Z,155
2017-07-31T09:02:46.486Z,150
2017-07-31T09:03:11.931Z,145
2017-07-31T09:03:37.433Z,140
2017-07-31T09:04:02.902Z,135
2017-07-31T09:04:28.358Z,140
2017-07-31T09:04:53.877Z,135
2017-07-31T09:05:19.379Z,130
2017-07-31T09:05:44.851Z,130
2017-07-31T09:06:10.331Z,130
2017-07-31T09:06:35.780Z,130
2017-07-31T09:07:01.312Z,125
2017-07-31T09:07:26.778Z,125
2017-07-31T09:07:52.275Z,125
2017-07-31T09:08:17.760Z,120
2017-07-31T09:08:43.223Z,120
2017-07-31T09:09:08.727Z,120
2017-07-31T09:09:34.204Z,120
2017-07-31T09:09:59.659Z,120
2017-07-31T09:10:25.180Z,120
2017-07-31T09:10:50.651Z,120
2017-07-31T09:11:16.131Z,120
2017-07-31T09:11:41.602Z,120
2017-07-31T09:12:07.093Z,120
2017-07-31T09:12:32.592Z,120
2017-07-31T09:12:58.089Z,120
2017-07-31T09:13:23.534Z,120
2017-07-31T09:13:49.042Z,120
2017-07-31T09:14:14.528Z,120
2017-07-31T09:14:40.020Z,115
2017-07-31T09:15:05.477Z,120
2017-07-31T09:15:30.961Z,120
2017-07-31T09:15:56.439Z,115
2017-07-31T09:16:21.917Z,115
2017-07-31T09:16:47.414Z,115
2017-07-31T09:17:12.905Z,110
2017-07-31T09:17:38.395Z,120
2017-07-31T09:18:03.866Z,115
2017-07-31T09:18:29.351Z,115
2017-07-31T09:18:54.836Z,120
2017-07-31T09:19:20.322Z,120
2017-07-31T09:19:45.803Z,120
2017-07-31T09:20:11.264Z,125
2017-07-31T09:20:36.754Z,125
2017-07-31T09:21:02.256Z,125
2017-07-31T09:21:27.702Z,125
2017-07-31T09:21:53.176Z,130
2017-07-31T09:22:18.666Z,135
2017-07-31T09:22:44.149Z,135
2017-07-31T09:23:09.625Z,135
2017-07-31T09:23:35.141Z,140
2017-07-31T09:24:00.629Z,140
2017-07-31T09:24:26.076Z,145
2017-07-31T09:24:51.553Z,140
2017-07-31T09:25:17.018Z,140
2017-07-31T09:25:42.501Z,135
2017-07-31T09:26:07.954Z,130
2017-07-31T09:26:33.448Z,125
2017-07-31T09:26:58.912Z,125
2017-07-31T09:27:24.420Z,120
2017-07-31T09:27:49.895Z,120
2017-07-31T09:28:15.400Z,115
2017-07-31T09:28:40.897Z,110
2017-07-31T09:29:06.366Z,110
2017-07-31T09:29:31.834Z,110
2017-07-31T09:29:57.326Z,110
2017-07-31T09:30:22.835Z,105
2017-07-31T09:30:48.330Z,110
2017-07-31T09:31:13.842Z,105
2017-07-31T09:31:39.287Z,105
2017-07-31T09:32:04.770Z,105
2017-07-31T09:32:30.249Z,110
2017-07-31T09:32:55.733Z,115
2017-07-31T09:33:21.182Z,120
2017-07-31T09:33:46.656Z,125
2017-07-31T09:34:12.129Z,120
2017-07-31T09:34:37.592Z,120
2017-07-31T09:35:03.091Z,110
2017-07-31T09:35:28.550Z,115
2017-07-31T09:35:54.011Z,120
2017-07-31T09:36:19.533Z,120
2017-07-31T09:36:44.980Z,120
2017-07-31T09:37:10.458Z,125
2017-07-31T09:37:35.920Z,130
2017-07-31T09:38:01.441Z,135
2017-07-31T09:38:26.971Z,140
2017-07-31T09:38:52.436Z,140
2017-07-31T09:39:17.925Z,135
2017-07-31T09:39:43.410Z,135
2017-07-31T09:40:08.879Z,130
2017-07-31T09:40:34.377Z,125
2017-07-31T09:40:59.848Z,120
2017-07-31T09:41:25.314Z,115
2017-07-31T09:41:50.797Z,115
2017-07-31T09:42:16.294Z,110
2017-07-31T09:42:41.802Z,110
2017-07-31T09:43:07.278Z,105
2017-07-31T09:43:32.745Z,105
2017-07-31T09:43:58.243Z,105
2017-07-31T09:44:23.719Z,105
2017-07-31T09:44:49.232Z,105
2017-07-31T09:45:14.684Z,105
2017-07-31T09:45:40.186Z,110
2017-07-31T09:46:05.645Z,110
2017-07-31T09:46:31.181Z,110
2017-07-31T09:46:56.626Z,110
2017-07-31T09:47:22.071Z,110
2017-07-31T09:47:47.562Z,110
2017-07-31T09:48:13.004Z,110
2017-07-31T09:48:38.486Z,105
2017-07-31T09:49:03.924Z,110
2017-07-31T09:49:29.428Z,110
2017-07-31T09:50:38.131Z,110
2017-07-31T09:51:03.625Z,110
2017-07-31T09:51:29.107Z,105
2017-07-31T09:51:54.557Z,105
2017-07-31T09:52:20.063Z,105
2017-07-31T09:52:45.543Z,105
2017-07-31T09:53:11.052Z,95
2017-07-31T09:53:36.622Z,100
2017-07-31T09:54:02.070Z,100
2017-07-31T09:54:27.530Z,105
2017-07-31T09:54:52.963Z,105
2017-07-31T09:55:18.492Z,110
2017-07-31T09:55:43.959Z,115
2017-07-31T09:56:09.416Z,130
2017-07-31T09:56:34.951Z,125
2017-07-31T09:57:00.447Z,120
2017-07-31T09:57:25.955Z,120
2017-07-31T09:57:51.407Z,125
2017-07-31T09:58:16.856Z,130
2017-07-31T09:58:42.361Z,125
2017-07-31T09:59:07.818Z,120
2017-07-31T09:59:33.307Z,120
2017-07-31T09:59:58.761Z,115
2017-07-31T10:00:24.241Z,105
2017-07-31T10:00:49.704Z,85
2017-07-31T10:01:15.178Z,80
2017-07-31T10:01:40.636Z,90
2017-07-31T10:02:06.125Z,135
2017-07-31T10:02:31.578Z,145
2017-07-31T10:02:57.091Z,150
2017-07-31T10:03:22.590Z,170
2017-07-31T10:03:48.072Z,160
2017-07-31T10:04:13.578Z,175
2017-07-31T10:04:39.076Z,175
2017-07-31T10:05:04.531Z,210
2017-07-31T10:05:30.036Z,210
2017-07-31T10:05:55.546Z,255
2017-07-31T10:06:21.017Z,230
2017-07-31T10:06:46.494Z,235
2017-07-31T10:07:11.967Z,250
2017-07-31T10:07:37.469Z,265
2017-07-31T10:08:02.954Z,260
2017-07-31T10:08:28.438Z,245
2017-07-31T10:09:37.144Z,195
2017-07-31T10:10:02.612Z,200
2017-07-31T10:10:28.061Z,200
2017-07-31T10:10:53.561Z,200
2017-07-31T10:11:19.027Z,195
2017-07-31T10:11:44.551Z,175
2017-07-31T10:12:10.042Z,160
2017-07-31T10:12:35.550Z,155
2017-07-31T10:13:01.018Z,145
2017-07-31T10:13:26.521Z,150
2017-07-31T10:13:51.988Z,145
2017-07-31T10:14:17.465Z,145
2017-07-31T10:14:42.969Z,140
2017-07-31T10:15:08.438Z,145
2017-07-31T10:15:33.933Z,145
2017-07-31T10:15:59.415Z,145
2017-07-31T10:16:24.921Z,145
2017-07-31T10:16:50.410Z,145
2017-07-31T10:17:15.854Z,140
2017-07-31T10:17:41.350Z,140
2017-07-31T10:18:06.826Z,135
2017-07-31T10:18:32.270Z,135
2017-07-31T10:18:57.757Z,130
2017-07-31T10:19:23.219Z,125
2017-07-31T10:19:48.718Z,120
2017-07-31T10:20:14.195Z,120
2017-07-31T10:20:39.636Z,120
2017-07-31T10:21:05.134Z,120
2017-07-31T10:21:30.600Z,115
2017-07-31T10:21:56.087Z,115
2017-07-31T10:22:21.577Z,115
2017-07-31T10:22:47.022Z,115
2017-07-31T10:23:12.523Z,115
2017-07-31T10:23:37.979Z,105
2017-07-31T10:24:03.457Z,115
2017-07-31T10:24:28.933Z,120
2017-07-31T10:24:54.472Z,120
2017-07-31T10:25:19.956Z,120
2017-07-31T10:25:45.465Z,120
2017-07-31T10:26:10.920Z,115
2017-07-31T10:26:36.457Z,115
2017-07-31T10:27:01.953Z,95
2017-07-31T10:27:27.462Z,110
2017-07-31T10:27:52.917Z,110
2017-07-31T10:28:18.385Z,115
2017-07-31T10:28:43.884Z,100
2017-07-31T10:29:09.350Z,110
2017-07-31T10:29:34.879Z,110
2017-07-31T10:30:00.348Z,115
2017-07-31T10:30:25.848Z,115
2017-07-31T10:30:51.336Z,120
2017-07-31T10:31:16.898Z,105
2017-07-31T10:31:42.377Z,105
2017-07-31T10:32:07.854Z,100
2017-07-31T10:32:33.338Z,100
2017-07-31T10:32:58.840Z,110
2017-07-31T10:33:24.371Z,120
2017-07-31T10:33:49.813Z,125
2017-07-31T10:34:15.322Z,125
2017-07-31T10:34:40.840Z,125
2017-07-31T10:35:06.312Z,120
2017-07-31T10:35:31.810Z,120
2017-07-31T10:35:57.281Z,120
2017-07-31T10:36:22.756Z,120
2017-07-31T10:36:48.219Z,120
2017-07-31T10:37:13.694Z,120
2017-07-31T10:37:39.199Z,120
2017-07-31T10:38:04.689Z,120
2017-07-31T10:38:30.194Z,120
2017-07-31T10:38:55.684Z,125
2017-07-31T10:39:21.179Z,125
2017-07-31T10:39:46.606Z,125
2017-07-31T10:40:12.115Z,125
2017-07-31T10:40:37.588Z,125
2017-07-31T10:41:03.083Z,125
2017-07-31T10:41:28.588Z,125
2017-07-31T10:41:54.106Z,125
2017-07-31T10:42:19.558Z,125
2017-07-31T10:42:45.030Z,125
2017-07-31T10:43:10.500Z,125
2017-07-31T10:43:35.983Z,125
2017-07-31T10:44:01.481Z,125
2017-07-31T10:44:26.962Z,115
2017-07-31T10:44:52.449Z,130
2017-07-31T10:45:17.924Z,135
2017-07-31T10:45:43.418Z,130
2017-07-31T10:46:08.899Z,135
2017-07-31T10:46:34.374Z,135
2017-07-31T10:46:59.870Z,130
2017-07-31T10:47:25.350Z,130
2017-07-31T10:47:50.890Z,125
2017-07-31T10:48:16.408Z,125
2017-07-31T10:49:25.133Z,125
2017-07-31T10:49:50.597Z,125
2017-07-31T10:50:16.061Z,130
2017-07-31T10:50:41.523Z,130
2017-07-31T10:51:06.992Z,130
2017-07-31T10:51:32.456Z,135
2017-07-31T10:51:57.928Z,140
2017-07-31T10:52:23.380Z,140
2017-07-31T10:52:48.844Z,145
2017-07-31T10:53:14.301Z,145
2017-07-31T10:53:39.812Z,165
2017-07-31T10:54:05.307Z,160
2017-07-31T10:54:30.768Z,160
2017-07-31T10:54:56.240Z,160
2017-07-31T10:55:21.703Z,160
2017-07-31T10:55:47.184Z,160
2017-07-31T10:56:12.684Z,160
2017-07-31T10:56:38.180Z,165
2017-07-31T10:57:03.678Z,165
2017-07-31T10:57:29.169Z,165
2017-07-31T10:57:54.649Z,160
2017-07-31T10:58:20.169Z,160
2017-07-31T10:58:45.641Z,160
2017-07-31T10:59:11.116Z,160
2017-07-31T10:59:36.577Z,155
2017-07-31T11:00:02.054Z,155
2017-07-31T11:00:27.554Z,150
2017-07-31T11:00:52.970Z,150
2017-07-31T11:01:18.459Z,155
2017-07-31T11:01:43.950Z,155
2017-07-31T11:02:09.448Z,160
2017-07-31T11:02:34.953Z,170
2017-07-31T11:03:00.439Z,180
2017-07-31T11:03:25.910Z,185
2017-07-31T11:03:51.379Z,200
2017-07-31T11:04:16.867Z,200
2017-07-31T11:04:42.428Z,195
2017-07-31T11:05:07.879Z,195
2017-07-31T11:05:33.330Z,190
2017-07-31T11:05:58.833Z,185
2017-07-31T11:06:24.318Z,180
2017-07-31T11:06:49.795Z,180
2017-07-31T11:07:15.257Z,175
2017-07-31T11:07:40.762Z,175
2017-07-31T11:08:06.212Z,175
2017-07-31T11:08:31.692Z,180
2017-07-31T11:08:57.154Z,180
2017-07-31T11:09:22.639Z,180
2017-07-31T11:09:48.130Z,175
2017-07-31T11:10:13.655Z,170
2017-07-31T11:10:39.124Z,165
2017-07-31T11:11:04.636Z,155
2017-07-31T11:11:30.138Z,155
2017-07-31T11:11:55.613Z,150
2017-07-31T11:12:21.094Z,145
2017-07-31T11:12:46.551Z,145
2017-07-31T11:13:12.026Z,150
2017-07-31T11:13:37.489Z,155
2017-07-31T11:14:03.005Z,160
2017-07-31T11:14:28.471Z,170
2017-07-31T11:14:53.966Z,185
2017-07-31T11:15:19.474Z,190
2017-07-31T11:15:44.964Z,195
2017-07-31T11:16:10.374Z,200
2017-07-31T11:16:35.853Z,195
2017-07-31T11:17:01.351Z,205
2017-07-31T11:17:26.854Z,200
2017-07-31T11:17:52.308Z,200
2017-07-31T11:18:17.817Z,195
2017-07-31T11:18:43.296Z,185
2017-07-31T11:19:08.783Z,180
2017-07-31T11:19:34.293Z,175
2017-07-31T11:19:59.742Z,170
2017-07-31T11:20:25.319Z,165
2017-07-31T11:20:50.781Z,165
2017-07-31T11:21:16.264Z,160
2017-07-31T11:21:41.732Z,160
2017-07-31T11:22:07.186Z,155
2017-07-31T11:22:32.654Z,155
2017-07-31T11:22:58.127Z,160
2017-07-31T11:23:23.629Z,160
2017-07-31T11:23:49.128Z,165
2017-07-31T11:24:14.576Z,165
2017-07-31T11:24:40.048Z,170
2017-07-31T11:25:05.547Z,175
2017-07-31T11:25:31.017Z,175
2017-07-31T11:25:56.523Z,175
2017-07-31T11:26:22.141Z,175
2017-07-31T11:26:47.615Z,175
2017-07-31T11:27:13.106Z,175